sensor_id;sensor_type;location;lat;lon;timestamp;temperature;humidity
52024;DHT22;38038;45.922;13.604;2022-10-04T09:05:28;18.30;99.90
52024;DHT22;38038;45.922;13.604;2022-10-04T09:17:22;18.70;99.90
52024;DHT22;38038;45.922;13.604;2022-10-04T09:20:02;18.90;99.90
52024;DHT22;38038;45.922;13.604;2022-10-04T09:22:46;19.00;99.90
52024;DHT22;38038;45.922;13.604;2022-10-04T09:36:09;18.90;99.90
52024;DHT22;38038;45.922;13.604;2022-10-04T09:41:30;19.20;99.90
52024;DHT22;38038;45.922;13.604;2022-10-04T09:47:13;19.40;99.90
52024;DHT22;38038;45.922;13.604;2022-10-04T10:00:59;19.60;99.90
52024;DHT22;38038;45.922;13.604;2022-10-04T10:06:54;19.90;99.90
52024;DHT22;38038;45.922;13.604;2022-10-04T10:09:58;19.80;99.90
52024;DHT22;38038;45.922;13.604;2022-10-04T10:44:40;20.40;99.90
52024;DHT22;38038;45.922;13.604;2022-10-04T11:21:43;21.60;99.90
52024;DHT22;38038;45.922;13.604;2022-10-04T11:24:25;21.40;99.90
52024;DHT22;38038;45.922;13.604;2022-10-04T11:46:21;20.80;99.90
52024;DHT22;38038;45.922;13.604;2022-10-04T11:49:05;20.80;99.90
52024;DHT22;38038;45.922;13.604;2022-10-04T12:09:39;20.40;99.90
52024;DHT22;38038;45.922;13.604;2022-10-04T12:15:02;20.50;99.90
52024;DHT22;38038;45.922;13.604;2022-10-04T12:17:53;20.50;99.90
52024;DHT22;38038;45.922;13.604;2022-10-04T12:37:32;20.80;99.90
52024;DHT22;38038;45.922;13.604;2022-10-04T12:40:13;21.00;99.90
52024;DHT22;38038;45.922;13.604;2022-10-04T12:46:11;20.70;99.90
52024;DHT22;38038;45.922;13.604;2022-10-04T12:49:06;20.50;99.90
52024;DHT22;38038;45.922;13.604;2022-10-04T12:51:36;20.40;99.90
52024;DHT22;38038;45.922;13.604;2022-10-04T12:54:50;20.30;99.90
52024;DHT22;38038;45.922;13.604;2022-10-04T13:03:06;20.30;99.90
52024;DHT22;38038;45.922;13.604;2022-10-04T13:08:41;20.20;99.90
52024;DHT22;38038;45.922;13.604;2022-10-04T13:11:46;20.20;99.90
52024;DHT22;38038;45.922;13.604;2022-10-04T13:22:15;20.50;99.90
52024;DHT22;38038;45.922;13.604;2022-10-04T13:27:35;20.30;99.90
52024;DHT22;38038;45.922;13.604;2022-10-04T13:36:25;20.60;99.90
52024;DHT22;38038;45.922;13.604;2022-10-04T13:45:04;20.50;99.90
52024;DHT22;38038;45.922;13.604;2022-10-04T13:56:06;20.40;99.90
52024;DHT22;38038;45.922;13.604;2022-10-04T14:33:14;20.10;99.90
52024;DHT22;38038;45.922;13.604;2022-10-04T14:36:42;20.00;99.90
52024;DHT22;38038;45.922;13.604;2022-10-04T20:48:35;16.30;99.90
52024;DHT22;38038;45.922;13.604;2022-10-04T20:51:07;16.10;99.90
52024;DHT22;38038;45.922;13.604;2022-10-04T20:53:41;16.10;99.90
52024;DHT22;38038;45.922;13.604;2022-10-04T20:56:20;16.10;99.90
52024;DHT22;38038;45.922;13.604;2022-10-04T20:58:56;16.00;99.90
52024;DHT22;38038;45.922;13.604;2022-10-04T21:01:34;15.90;99.90
52024;DHT22;38038;45.922;13.604;2022-10-04T21:07:04;16.10;99.90
52024;DHT22;38038;45.922;13.604;2022-10-04T21:09:32;16.10;99.90
52024;DHT22;38038;45.922;13.604;2022-10-04T21:12:00;16.30;99.90
52024;DHT22;38038;45.922;13.604;2022-10-04T21:16:59;16.30;99.90
52024;DHT22;38038;45.922;13.604;2022-10-04T21:19:45;16.50;99.90
52024;DHT22;38038;45.922;13.604;2022-10-04T21:29:53;16.40;99.90
52024;DHT22;38038;45.922;13.604;2022-10-04T21:32:20;16.50;99.90
52024;DHT22;38038;45.922;13.604;2022-10-04T21:34:45;16.50;99.90
52024;DHT22;38038;45.922;13.604;2022-10-04T21:37:11;16.50;99.90
52024;DHT22;38038;45.922;13.604;2022-10-04T21:39:37;16.50;99.90
52024;DHT22;38038;45.922;13.604;2022-10-04T21:42:03;16.40;99.90
52024;DHT22;38038;45.922;13.604;2022-10-04T21:44:29;16.30;99.90
52024;DHT22;38038;45.922;13.604;2022-10-04T21:46:54;16.30;99.90
52024;DHT22;38038;45.922;13.604;2022-10-04T21:49:20;16.40;99.90
52024;DHT22;38038;45.922;13.604;2022-10-04T21:51:46;16.50;99.90
52024;DHT22;38038;45.922;13.604;2022-10-04T21:54:12;16.40;99.90
52024;DHT22;38038;45.922;13.604;2022-10-04T21:56:37;16.50;99.90
52024;DHT22;38038;45.922;13.604;2022-10-04T21:59:03;16.40;99.90
52024;DHT22;38038;45.922;13.604;2022-10-04T22:01:29;16.40;99.90
52024;DHT22;38038;45.922;13.604;2022-10-04T22:03:55;16.40;99.90
52024;DHT22;38038;45.922;13.604;2022-10-04T22:06:20;16.40;99.90
52024;DHT22;38038;45.922;13.604;2022-10-04T22:08:46;16.30;99.90
52024;DHT22;38038;45.922;13.604;2022-10-04T22:11:12;16.10;99.90
52024;DHT22;38038;45.922;13.604;2022-10-04T22:13:38;15.90;99.90
52024;DHT22;38038;45.922;13.604;2022-10-04T22:16:04;15.80;99.90
52024;DHT22;38038;45.922;13.604;2022-10-04T22:18:30;15.70;99.90
52024;DHT22;38038;45.922;13.604;2022-10-04T22:20:56;15.60;99.90
52024;DHT22;38038;45.922;13.604;2022-10-04T22:23:28;15.50;99.90
52024;DHT22;38038;45.922;13.604;2022-10-04T22:25:58;15.50;99.90
52024;DHT22;38038;45.922;13.604;2022-10-04T22:28:26;15.60;99.90
52024;DHT22;38038;45.922;13.604;2022-10-04T22:30:53;15.70;99.90
52024;DHT22;38038;45.922;13.604;2022-10-04T22:35:51;15.60;99.90
52024;DHT22;38038;45.922;13.604;2022-10-04T22:38:17;15.60;99.90
52024;DHT22;38038;45.922;13.604;2022-10-04T22:40:43;15.50;99.90
52024;DHT22;38038;45.922;13.604;2022-10-04T22:43:12;15.30;99.90
52024;DHT22;38038;45.922;13.604;2022-10-04T22:45:38;15.30;99.90
52024;DHT22;38038;45.922;13.604;2022-10-04T22:48:12;15.20;99.90
52024;DHT22;38038;45.922;13.604;2022-10-04T22:50:39;15.10;99.90
52024;DHT22;38038;45.922;13.604;2022-10-04T22:53:15;15.10;99.90
52024;DHT22;38038;45.922;13.604;2022-10-04T22:55:41;15.00;99.90
52024;DHT22;38038;45.922;13.604;2022-10-04T22:58:13;15.00;99.90
52024;DHT22;38038;45.922;13.604;2022-10-04T23:00:40;14.90;99.90
52024;DHT22;38038;45.922;13.604;2022-10-04T23:03:29;14.90;99.90
52024;DHT22;38038;45.922;13.604;2022-10-04T23:05:56;14.90;99.90
52024;DHT22;38038;45.922;13.604;2022-10-04T23:08:22;14.80;99.90
52024;DHT22;38038;45.922;13.604;2022-10-04T23:10:55;14.80;99.90
52024;DHT22;38038;45.922;13.604;2022-10-04T23:13:22;14.80;99.90
52024;DHT22;38038;45.922;13.604;2022-10-04T23:15:48;14.80;99.90
52024;DHT22;38038;45.922;13.604;2022-10-04T23:18:15;14.80;99.90
52024;DHT22;38038;45.922;13.604;2022-10-04T23:20:42;14.80;99.90
52024;DHT22;38038;45.922;13.604;2022-10-04T23:23:12;14.80;99.90
52024;DHT22;38038;45.922;13.604;2022-10-04T23:25:46;14.80;99.90
52024;DHT22;38038;45.922;13.604;2022-10-04T23:28:17;14.90;99.90
52024;DHT22;38038;45.922;13.604;2022-10-04T23:31:04;14.90;99.90
52024;DHT22;38038;45.922;13.604;2022-10-04T23:33:33;15.00;99.90
52024;DHT22;38038;45.922;13.604;2022-10-04T23:35:59;15.00;99.90
52024;DHT22;38038;45.922;13.604;2022-10-04T23:38:24;15.00;99.90
52024;DHT22;38038;45.922;13.604;2022-10-04T23:40:50;15.00;99.90
52024;DHT22;38038;45.922;13.604;2022-10-04T23:43:19;15.00;99.90
52024;DHT22;38038;45.922;13.604;2022-10-04T23:45:46;15.00;99.90
52024;DHT22;38038;45.922;13.604;2022-10-04T23:48:23;15.00;99.90
52024;DHT22;38038;45.922;13.604;2022-10-04T23:50:50;15.10;99.90
52024;DHT22;38038;45.922;13.604;2022-10-04T23:53:28;15.00;99.90
52024;DHT22;38038;45.922;13.604;2022-10-04T23:55:55;15.00;99.90
52024;DHT22;38038;45.922;13.604;2022-10-04T23:58:31;15.00;99.90
